Brandon Municipal Airport
CYBR : now visible

Airfield :











YOU CAN JOIN US ON...

 
LOGIN :

Register | Disclaimer

   EN    FR    IT 

 









Legend :    VFR   Marginal VFR   IFR   Intensive IFR   Very Intensive IFR
Visi :
Ceiling :
>= 8 km
>= 3000ft
5 to 8 km
1000 to 3000 ft
1500m to 5 km
500 to 1000 ft
800 to 1500m
200 to 500 ft
< 800m
< 200 ft
Symbols :   Thunderstorms  Fog  Heavy snow  Heavy precipitations  Wind > 20 kt






- Airport Elevation : 1343 ft
- IATA code : YBR


CYBR - Brandon Municipal

CURRENT METAR :
  • 080400Z 13010KT 15SM BKN190 22/15 A2977 RMK CI5 SLP081 DENSITY ALT 2700FT

EXPIRED METARs :
  • 080300Z 13009KT 15SM BKN240 23/16 A2978 RMK CI5 SLP085 DENSITY ALT 2700FT
  • 080200Z 12008KT 15SM BKN220 24/16 A2977 RMK CI5 SLP084 DENSITY ALT 2900FT

TAF TAF CYBR
Valid from the 08 at 00:00 until the 08 at 12:00 UTC


072339Z 0800/0812 14012KT P6SM FEW060 SCT240
FM080400 10012G22KT P6SM SCT050 BKN240
TEMPO 0804/0807 P6SM -SHRA BKN050 BKN180
FM080700 16015G25KT P6SM SCT040 BKN120
TEMPO 0807/0811 P6SM -SHRA BKN040 OVC120
PROB40 0807/0811 VRB25G35KT 1SM +TSRAGR SCT015 OVC040CB
FM081100 24015G25KT P6SM SCT006 BKN010
TEMPO 0811/0812 SCT010 BKN040 RMK NXT FCST BY 080600Z
CZWG FIR / North America



MET'MAP, your aeronautical weather chart ! - Copyright ORBIFLY December 2007 - Disclaimer

ORBIFLY MET'MAP TEAM :

Programming & Development : Alexandra Zaïnal
Concept & original design : Baudouin d'Aumeries
Assistance for programming : Marc-Olivier Méhu
Technical & hardware support : Manuel Goepfert

Contact : metmap@orbifly.com




SOURCES & CREDITS :

   NOAA       Earth
Advisory